createdAt,value
2023-04-15T00:01:54.089Z,2.35
2023-04-15T00:04:21.981Z,1.95
2023-04-15T00:06:56.091Z,2.55
2023-04-15T00:09:23.426Z,2.10
2023-04-15T00:11:51.471Z,2.47
2023-04-15T00:14:18.897Z,3.22
2023-04-15T00:16:46.258Z,2.47
2023-04-15T00:19:13.804Z,3.05
2023-04-15T00:21:41.580Z,2.47
2023-04-15T00:24:09.171Z,2.30
2023-04-15T00:26:36.760Z,2.40
2023-04-15T00:29:04.714Z,2.03
2023-04-15T00:31:32.385Z,2.58
2023-04-15T00:34:00.121Z,2.70
2023-04-15T00:36:27.773Z,2.53
2023-04-15T00:38:55.381Z,3.55
2023-04-15T00:41:23.459Z,3.72
2023-04-15T00:43:50.640Z,4.13
2023-04-15T00:46:20.728Z,5.15
2023-04-15T00:48:48.568Z,5.72
2023-04-15T00:51:16.264Z,6.03
2023-04-15T00:53:43.871Z,7.20
2023-04-15T00:56:11.482Z,6.45
2023-04-15T00:58:38.710Z,6.32
2023-04-15T01:01:06.696Z,6.05
2023-04-15T01:03:34.623Z,6.80
2023-04-15T01:06:04.127Z,6.70
2023-04-15T01:08:31.972Z,6.18
2023-04-15T01:11:02.248Z,6.82
2023-04-15T01:13:30.860Z,6.57
2023-04-15T01:15:58.372Z,5.63
2023-04-15T01:18:26.258Z,5.95
2023-04-15T01:20:53.819Z,5.72
2023-04-15T01:23:24.821Z,6.05
2023-04-15T01:25:54.001Z,6.78
2023-04-15T01:28:21.669Z,6.05
2023-04-15T01:30:49.313Z,6.25
2023-04-15T01:33:16.943Z,6.15
2023-04-15T01:36:06.341Z,5.35
2023-04-15T01:38:33.949Z,3.70
2023-04-15T01:41:03.141Z,3.97
2023-04-15T01:43:31.768Z,3.55
2023-04-15T01:46:00.668Z,3.80
2023-04-15T01:48:29.393Z,4.75
2023-04-15T01:50:59.044Z,4.88
2023-04-15T01:53:27.463Z,4.63
2023-04-15T01:55:56.351Z,4.50
2023-04-15T01:58:25.253Z,4.82
2023-04-15T02:00:54.012Z,4.43
2023-04-15T02:03:23.388Z,4.53
2023-04-15T02:05:54.695Z,4.97
2023-04-15T02:08:23.807Z,4.15
2023-04-15T02:10:53.037Z,4.93
2023-04-15T02:13:22.054Z,3.28
2023-04-15T02:15:52.878Z,4.07
2023-04-15T02:18:21.750Z,3.63
2023-04-15T02:20:52.699Z,3.35
2023-04-15T02:23:21.191Z,3.13
2023-04-15T02:25:53.801Z,3.25
2023-04-15T02:28:22.685Z,2.97
2023-04-15T02:30:53.076Z,2.83
2023-04-15T02:33:22.065Z,2.65
2023-04-15T02:35:50.998Z,2.22
2023-04-15T02:38:19.483Z,2.10
2023-04-15T02:40:50.420Z,2.90
2023-04-15T02:43:19.088Z,2.45
2023-04-15T02:45:48.570Z,2.35
2023-04-15T02:48:19.606Z,2.42
2023-04-15T02:50:48.435Z,2.30
2023-04-15T02:53:20.103Z,2.60
2023-04-15T02:55:48.812Z,2.45
2023-04-15T02:58:17.334Z,2.33
2023-04-15T03:00:45.694Z,2.60
2023-04-15T03:03:15.455Z,2.38
2023-04-15T03:05:45.027Z,2.47
2023-04-15T03:08:15.037Z,2.60
2023-04-15T03:10:43.417Z,2.38
2023-04-15T03:13:11.852Z,2.00
2023-04-15T03:15:41.115Z,3.05
2023-04-15T03:18:09.505Z,2.50
2023-04-15T03:20:37.917Z,2.63
2023-04-15T03:23:06.619Z,2.53
2023-04-15T03:25:37.446Z,2.30
2023-04-15T03:28:07.828Z,2.30
2023-04-15T03:30:36.286Z,2.80
2023-04-15T03:33:04.873Z,2.70
2023-04-15T03:35:34.225Z,2.42
2023-04-15T03:38:02.663Z,2.78
2023-04-15T03:40:31.230Z,3.35
2023-04-15T03:42:59.719Z,2.88
2023-04-15T03:45:28.222Z,3.50
2023-04-15T03:48:03.572Z,3.35
2023-04-15T03:50:39.860Z,3.40
2023-04-15T03:53:08.355Z,3.45
2023-04-15T03:55:37.171Z,3.72
2023-04-15T03:58:05.693Z,3.45
2023-04-15T04:00:34.340Z,3.85
2023-04-15T04:03:03.076Z,4.03
2023-04-15T04:05:31.780Z,3.97
2023-04-15T04:08:00.674Z,3.85
2023-04-15T04:10:29.065Z,3.88
2023-04-15T04:12:57.399Z,4.70
2023-04-15T04:15:26.297Z,4.90
2023-04-15T04:17:54.922Z,4.20
2023-04-15T04:20:23.485Z,4.95
2023-04-15T04:22:51.971Z,4.65
2023-04-15T04:25:20.612Z,4.32
2023-04-15T04:27:49.154Z,4.63
2023-04-15T04:30:17.826Z,4.93
2023-04-15T04:32:46.288Z,4.68
2023-04-15T04:35:14.709Z,4.57
2023-04-15T04:37:43.115Z,4.18
2023-04-15T04:40:12.137Z,5.03
2023-04-15T04:42:40.724Z,4.28
2023-04-15T04:45:09.508Z,5.57
2023-04-15T04:47:37.909Z,5.68
2023-04-15T04:50:07.003Z,5.32
2023-04-15T04:52:35.459Z,4.53
2023-04-15T04:55:04.151Z,5.28
2023-04-15T04:57:32.677Z,5.00
2023-04-15T05:00:01.062Z,5.40
2023-04-15T05:02:29.568Z,5.13
2023-04-15T05:04:58.332Z,4.43
2023-04-15T05:07:27.567Z,4.75
2023-04-15T05:09:56.132Z,5.32
2023-04-15T05:12:24.630Z,5.80
2023-04-15T05:14:53.037Z,4.85
2023-04-15T05:17:21.455Z,4.95
2023-04-15T05:19:49.971Z,5.50
2023-04-15T05:22:18.361Z,4.70
2023-04-15T05:24:46.955Z,4.28
2023-04-15T05:27:15.854Z,4.50
2023-04-15T05:29:44.321Z,4.53
2023-04-15T05:32:12.862Z,4.47
2023-04-15T05:34:41.938Z,5.20
2023-04-15T05:37:10.266Z,3.97
2023-04-15T05:39:38.843Z,5.13
2023-04-15T05:42:07.723Z,5.43
2023-04-15T05:44:36.305Z,5.32
2023-04-15T05:47:06.006Z,5.13
2023-04-15T05:49:34.770Z,4.85
2023-04-15T05:52:03.624Z,5.57
2023-04-15T05:54:32.601Z,5.80
2023-04-15T05:57:01.069Z,4.97
2023-04-15T05:59:29.608Z,4.97
2023-04-15T06:01:58.128Z,5.30
2023-04-15T06:04:26.707Z,5.55
2023-04-15T06:06:55.247Z,5.13
2023-04-15T06:09:23.826Z,5.03
2023-04-15T06:11:53.028Z,5.25
2023-04-15T06:14:21.726Z,4.90
2023-04-15T06:16:50.235Z,5.03
2023-04-15T06:19:19.526Z,4.68
2023-04-15T06:21:48.044Z,4.93
2023-04-15T06:24:16.726Z,5.13
2023-04-15T06:26:45.327Z,5.10
2023-04-15T06:29:13.803Z,4.93
2023-04-15T06:31:42.761Z,4.22
2023-04-15T06:34:11.406Z,4.65
2023-04-15T06:36:39.885Z,3.72
2023-04-15T06:39:08.841Z,4.05
2023-04-15T06:41:37.445Z,4.72
2023-04-15T06:44:05.991Z,4.03
2023-04-15T06:46:34.973Z,4.40
2023-04-15T06:49:03.982Z,4.15
2023-04-15T06:51:32.933Z,4.70
2023-04-15T06:54:02.434Z,3.70
2023-04-15T06:56:31.093Z,4.10
2023-04-15T06:58:59.592Z,4.35
2023-04-15T07:01:28.441Z,3.90
2023-04-15T07:03:57.252Z,3.72
2023-04-15T07:06:26.224Z,4.07
2023-04-15T07:08:55.802Z,4.40
2023-04-15T07:11:26.021Z,3.90
2023-04-15T07:13:54.943Z,4.50
2023-04-15T07:16:24.034Z,3.92
2023-04-15T07:18:53.191Z,4.38
2023-04-15T07:21:21.926Z,4.75
2023-04-15T07:23:50.527Z,4.03
2023-04-15T07:26:19.078Z,4.45
2023-04-15T07:28:47.608Z,4.28
2023-04-15T07:31:17.049Z,4.65
2023-04-15T07:33:45.730Z,4.30
2023-04-15T07:36:14.182Z,4.88
2023-04-15T07:38:43.505Z,5.65
2023-04-15T07:41:12.199Z,5.97
2023-04-15T07:43:40.527Z,5.28
2023-04-15T07:46:09.239Z,5.38
2023-04-15T07:48:37.918Z,5.80
2023-04-15T07:51:06.693Z,5.53
2023-04-15T07:53:35.163Z,5.78
2023-04-15T07:56:03.663Z,6.43
2023-04-15T07:58:32.052Z,7.45
2023-04-15T08:01:00.968Z,6.70
2023-04-15T08:03:29.529Z,7.38
2023-04-15T08:05:58.342Z,6.55
2023-04-15T08:08:27.752Z,7.05
2023-04-15T08:10:56.837Z,7.88
2023-04-15T08:13:26.508Z,7.85
2023-04-15T08:16:18.989Z,7.95
2023-04-15T08:18:48.949Z,7.13
2023-04-15T08:21:18.869Z,8.13
2023-04-15T08:23:52.093Z,7.88
2023-04-15T08:26:21.697Z,8.55
2023-04-15T08:28:50.377Z,7.45
2023-04-15T08:31:19.656Z,8.45
2023-04-15T08:33:48.278Z,8.05
2023-04-15T08:36:17.044Z,7.63
2023-04-15T08:38:45.783Z,8.07
2023-04-15T08:41:25.368Z,8.65
2023-04-15T08:44:04.626Z,8.52
2023-04-15T08:46:36.733Z,8.57
2023-04-15T08:51:34.486Z,7.82
2023-04-15T08:54:04.160Z,7.18
2023-04-15T08:56:34.034Z,8.07
2023-04-15T08:59:04.064Z,8.52
2023-04-15T09:01:33.559Z,8.25
2023-04-15T09:04:03.571Z,8.13
2023-04-15T09:06:32.315Z,7.32
2023-04-15T09:09:01.546Z,7.55
2023-04-15T09:11:31.574Z,8.05
2023-04-15T09:14:00.503Z,8.52
2023-04-15T09:16:29.161Z,9.55
2023-04-15T09:18:57.653Z,7.88
2023-04-15T09:21:26.252Z,7.70
2023-04-15T09:26:40.197Z,8.48
2023-04-15T09:29:11.023Z,8.02
2023-04-15T09:31:41.061Z,7.63
2023-04-15T09:34:09.836Z,8.32
2023-04-15T09:36:57.495Z,9.45
2023-04-15T09:39:26.043Z,8.20
2023-04-15T09:42:12.540Z,9.57
2023-04-15T09:44:41.099Z,7.68
2023-04-15T09:47:09.640Z,8.15
2023-04-15T09:49:38.296Z,9.43
2023-04-15T09:52:06.890Z,10.10
2023-04-15T09:54:37.529Z,8.73
2023-04-15T09:57:07.455Z,8.43
2023-04-15T09:59:36.185Z,9.18
2023-04-15T10:02:08.054Z,9.43
2023-04-15T10:04:41.595Z,7.45
2023-04-15T10:07:10.736Z,7.57
2023-04-15T10:09:39.792Z,7.50
2023-04-15T10:12:08.946Z,6.47
2023-04-15T10:14:38.950Z,6.95
2023-04-15T10:17:11.231Z,7.28
2023-04-15T10:19:40.572Z,5.80
2023-04-15T10:22:09.626Z,5.28
2023-04-15T10:24:40.258Z,6.03
2023-04-15T10:27:10.275Z,6.03
2023-04-15T10:29:39.648Z,7.53
2023-04-15T10:32:09.508Z,6.40
2023-04-15T10:34:38.755Z,6.32
2023-04-15T10:37:11.231Z,5.68
2023-04-15T10:39:42.640Z,5.30
2023-04-15T10:42:15.503Z,6.90
2023-04-15T10:44:53.710Z,6.68
2023-04-15T10:47:23.229Z,7.13
2023-04-15T10:49:56.931Z,6.82
2023-04-15T10:52:27.750Z,6.65
2023-04-15T10:55:04.666Z,6.15
2023-04-15T10:57:39.070Z,6.60
2023-04-15T11:00:18.255Z,7.00
2023-04-15T11:02:57.238Z,5.90
2023-04-15T11:05:50.450Z,5.68
2023-04-15T11:08:19.424Z,6.22
2023-04-15T11:10:47.717Z,6.05
2023-04-15T11:13:21.840Z,6.30
2023-04-15T11:15:52.072Z,6.43
2023-04-15T11:18:26.823Z,6.63
2023-04-15T11:20:59.303Z,6.90
2023-04-15T11:23:29.360Z,6.32
2023-04-15T11:25:59.454Z,5.60
2023-04-15T11:28:30.644Z,6.15
2023-04-15T11:31:05.959Z,5.75
2023-04-15T11:33:34.478Z,7.45
2023-04-15T11:36:04.312Z,6.10
2023-04-15T11:38:34.905Z,5.88
2023-04-15T11:41:03.595Z,4.90
2023-04-15T11:43:32.875Z,5.22
2023-04-15T11:46:02.936Z,4.47
2023-04-15T11:48:36.241Z,4.72
2023-04-15T11:51:07.424Z,4.97
2023-04-15T11:53:43.726Z,5.32
2023-04-15T11:56:16.974Z,5.32
2023-04-15T11:58:44.907Z,5.45
2023-04-15T12:01:12.540Z,4.93
2023-04-15T12:03:47.134Z,5.20
2023-04-15T12:06:20.817Z,5.07
2023-04-15T12:09:09.868Z,5.68
2023-04-15T12:11:38.278Z,4.72
2023-04-15T12:14:11.390Z,4.95
2023-04-15T12:16:48.844Z,4.68
2023-04-15T12:19:22.792Z,6.57
2023-04-15T12:21:51.124Z,6.88
2023-04-15T12:24:23.091Z,4.55
2023-04-15T12:27:06.237Z,4.75
2023-04-15T12:29:34.537Z,4.93
2023-04-15T12:32:11.951Z,4.70
2023-04-15T12:34:43.511Z,5.15
2023-04-15T12:37:12.227Z,6.27
2023-04-15T12:39:41.585Z,4.68
2023-04-15T12:42:09.615Z,6.63
2023-04-15T12:44:38.309Z,6.10
2023-04-15T12:47:05.709Z,6.80
2023-04-15T12:49:33.794Z,7.18
2023-04-15T12:52:02.219Z,4.55
2023-04-15T12:54:30.638Z,5.60
2023-04-15T12:56:58.344Z,5.22
2023-04-15T12:59:25.592Z,5.15
2023-04-15T13:01:53.689Z,3.65
2023-04-15T13:04:22.138Z,4.60
2023-04-15T13:06:50.203Z,5.65
2023-04-15T13:09:17.414Z,4.13
2023-04-15T13:11:44.664Z,4.72
2023-04-15T13:14:13.254Z,4.75
2023-04-15T13:16:41.564Z,5.55
2023-04-15T13:19:08.890Z,4.90
2023-04-15T13:21:36.541Z,4.65
2023-04-15T13:24:07.181Z,4.57
2023-04-15T13:26:34.688Z,3.65
2023-04-15T13:29:02.114Z,4.15
2023-04-15T13:31:29.387Z,3.85
2023-04-15T13:33:57.790Z,4.75
2023-04-15T13:36:24.971Z,3.90
2023-04-15T13:38:52.553Z,3.17
2023-04-15T13:41:21.347Z,4.40
2023-04-15T13:43:48.590Z,4.70
2023-04-15T13:46:16.175Z,5.28
2023-04-15T13:48:43.410Z,3.67
2023-04-15T13:51:10.543Z,3.50
2023-04-15T13:53:39.386Z,3.72
2023-04-15T13:56:08.559Z,4.00
2023-04-15T13:58:37.240Z,3.33
2023-04-15T14:01:07.038Z,3.90
2023-04-15T14:03:36.827Z,3.80
2023-04-15T14:06:05.754Z,3.05
2023-04-15T14:08:33.525Z,3.75
2023-04-15T14:11:01.001Z,4.10
2023-04-15T14:13:28.413Z,3.08
2023-04-15T14:15:56.911Z,3.88
2023-04-15T14:18:24.171Z,4.35
2023-04-15T14:20:51.930Z,3.95
2023-04-15T14:23:19.536Z,4.15
2023-04-15T14:25:48.261Z,4.22
2023-04-15T14:28:16.294Z,3.78
2023-04-15T14:30:43.612Z,3.80
2023-04-15T14:33:10.905Z,4.07
2023-04-15T14:35:39.323Z,4.05
2023-04-15T14:38:10.778Z,3.55
2023-04-15T14:40:38.154Z,3.60
2023-04-15T14:43:05.272Z,4.45
2023-04-15T14:45:32.527Z,3.60
2023-04-15T14:48:00.337Z,3.78
2023-04-15T14:50:27.650Z,4.10
2023-04-15T14:52:54.767Z,3.33
2023-04-15T14:55:22.151Z,3.75
2023-04-15T14:57:49.326Z,3.33
2023-04-15T15:00:16.671Z,3.28
2023-04-15T15:02:44.291Z,3.30
2023-04-15T15:05:12.330Z,3.17
2023-04-15T15:07:41.056Z,3.88
2023-04-15T15:10:08.834Z,3.88
2023-04-15T15:12:36.360Z,2.72
2023-04-15T15:15:12.103Z,3.67
2023-04-15T15:17:43.449Z,3.33
2023-04-15T15:20:10.981Z,3.30
2023-04-15T15:22:38.288Z,4.45
2023-04-15T15:25:05.911Z,3.83
2023-04-15T15:27:33.126Z,4.00
2023-04-15T15:30:00.433Z,4.82
2023-04-15T15:32:27.751Z,3.60
2023-04-15T15:34:55.051Z,4.68
2023-04-15T15:37:22.275Z,3.80
2023-04-15T15:39:50.844Z,4.32
2023-04-15T15:42:19.660Z,3.17
2023-04-15T15:44:49.210Z,4.65
2023-04-15T15:47:17.025Z,3.83
2023-04-15T15:49:44.377Z,3.92
2023-04-15T15:52:12.039Z,4.50
2023-04-15T15:54:40.729Z,3.17
2023-04-15T15:57:08.131Z,3.20
2023-04-15T15:59:35.311Z,4.30
2023-04-15T16:02:03.016Z,3.25
2023-04-15T16:04:30.455Z,4.97
2023-04-15T16:06:58.018Z,4.03
2023-04-15T16:09:25.210Z,3.10
2023-04-15T16:11:52.516Z,3.10
2023-04-15T16:14:20.944Z,3.90
2023-04-15T16:16:48.248Z,4.03
2023-04-15T16:19:15.514Z,3.47
2023-04-15T16:21:43.862Z,2.95
2023-04-15T16:24:11.299Z,3.95
2023-04-15T16:26:38.562Z,3.47
2023-04-15T16:29:06.152Z,3.67
2023-04-15T16:31:34.913Z,4.13
2023-04-15T16:34:02.963Z,4.47
2023-04-15T16:36:31.712Z,4.43
2023-04-15T16:38:59.010Z,4.78
2023-04-15T16:41:26.368Z,5.50
2023-04-15T16:43:53.620Z,3.58
2023-04-15T16:46:20.816Z,4.53
2023-04-15T16:48:47.987Z,3.05
2023-04-15T16:51:15.133Z,3.90
2023-04-15T16:53:42.277Z,3.00
2023-04-15T16:56:09.447Z,3.58
2023-04-15T16:58:36.601Z,3.78
2023-04-15T17:01:04.041Z,3.30
2023-04-15T17:03:31.670Z,3.78
2023-04-15T17:05:58.850Z,3.05
2023-04-15T17:08:26.610Z,3.03
2023-04-15T17:10:55.263Z,3.10
2023-04-15T17:13:22.592Z,3.38
2023-04-15T17:15:50.070Z,3.20
2023-04-15T17:18:27.686Z,3.83
2023-04-15T17:21:06.672Z,3.42
2023-04-15T17:23:34.938Z,2.40
2023-04-15T17:26:03.364Z,3.13
2023-04-15T17:28:30.701Z,3.30
2023-04-15T17:30:59.655Z,2.60
2023-04-15T17:33:59.129Z,2.40
2023-04-15T17:36:55.038Z,3.45
2023-04-15T17:39:42.184Z,3.75
2023-04-15T17:42:29.347Z,4.78
2023-04-15T17:45:16.504Z,3.90
2023-04-15T17:48:03.834Z,4.03
2023-04-15T17:50:51.995Z,3.95
2023-04-15T17:53:39.697Z,3.55
2023-04-15T17:56:29.341Z,3.88
2023-04-15T17:59:16.727Z,3.95
2023-04-15T18:02:04.166Z,4.93
2023-04-15T18:04:51.565Z,4.22
2023-04-15T18:07:38.921Z,5.68
2023-04-15T18:10:26.084Z,4.38
2023-04-15T18:13:13.237Z,3.78
2023-04-15T18:16:00.795Z,4.72
2023-04-15T18:18:48.080Z,4.50
2023-04-15T18:21:15.164Z,4.68
2023-04-15T18:23:42.440Z,3.97
2023-04-15T18:26:09.854Z,4.25
2023-04-15T18:28:38.786Z,5.00
2023-04-15T18:31:06.562Z,4.85
2023-04-15T18:33:35.996Z,4.15
2023-04-15T18:36:03.301Z,5.00
2023-04-15T18:38:30.708Z,3.80
2023-04-15T18:40:58.791Z,3.25
2023-04-15T18:43:27.065Z,4.32
2023-04-15T18:45:55.048Z,4.35
2023-04-15T18:48:22.614Z,4.15
2023-04-15T18:50:53.945Z,3.95
2023-04-15T18:53:21.789Z,3.97
2023-04-15T18:55:49.050Z,3.75
2023-04-15T18:58:16.336Z,4.90
2023-04-15T19:00:43.920Z,3.55
2023-04-15T19:03:11.710Z,3.42
2023-04-15T19:05:40.097Z,3.75
2023-04-15T19:08:07.695Z,3.53
2023-04-15T19:10:35.469Z,3.45
2023-04-15T19:13:04.296Z,3.35
2023-04-15T19:15:31.943Z,3.90
2023-04-15T19:17:59.162Z,3.63
2023-04-15T19:20:26.508Z,5.07
2023-04-15T19:22:55.199Z,6.57
2023-04-15T19:25:22.370Z,5.32
2023-04-15T19:27:49.566Z,4.53
2023-04-15T19:30:16.853Z,3.80
2023-04-15T19:32:44.113Z,4.32
2023-04-15T19:35:11.765Z,4.95
2023-04-15T19:37:39.084Z,4.68
2023-04-15T19:40:06.947Z,5.13
2023-04-15T19:42:34.081Z,5.75
2023-04-15T19:45:01.297Z,5.72
2023-04-15T19:47:28.775Z,6.57
2023-04-15T19:49:56.045Z,6.43
2023-04-15T19:52:23.195Z,4.95
2023-04-15T19:54:50.482Z,4.78
2023-04-15T19:57:17.864Z,5.22
2023-04-15T19:59:45.070Z,5.63
2023-04-15T20:02:12.352Z,4.85
2023-04-15T20:04:39.758Z,4.68
2023-04-15T20:07:07.112Z,5.63
2023-04-15T20:09:34.390Z,5.03
2023-04-15T20:12:45.255Z,4.82
2023-04-15T20:14:48.892Z,4.57
2023-04-15T20:17:16.300Z,4.72
2023-04-15T20:19:43.490Z,5.10
2023-04-15T20:22:10.852Z,5.28
2023-04-15T20:24:38.097Z,5.60
2023-04-15T20:27:05.524Z,4.45
2023-04-15T20:29:32.807Z,5.05
2023-04-15T20:32:00.186Z,5.32
2023-04-15T20:34:27.354Z,6.13
2023-04-15T20:36:54.565Z,6.45
2023-04-15T20:39:22.037Z,6.90
2023-04-15T20:41:50.768Z,5.93
2023-04-15T20:44:18.084Z,6.18
2023-04-15T20:46:45.928Z,5.68
2023-04-15T20:49:13.162Z,6.53
2023-04-15T20:51:40.561Z,5.57
2023-04-15T20:54:07.888Z,6.53
2023-04-15T20:56:35.192Z,6.07
2023-04-15T20:59:02.436Z,7.20
2023-04-15T21:01:29.715Z,5.20
2023-04-15T21:03:56.831Z,7.20
2023-04-15T21:06:24.744Z,8.02
2023-04-15T21:08:52.514Z,6.80
2023-04-15T21:11:38.829Z,6.65
2023-04-15T21:14:08.588Z,6.32
2023-04-15T21:16:35.849Z,6.25
2023-04-15T21:19:03.520Z,7.38
2023-04-15T21:21:32.013Z,7.47
2023-04-15T21:23:59.759Z,7.88
2023-04-15T21:26:27.119Z,6.22
2023-04-15T21:28:54.321Z,6.97
2023-04-15T21:31:22.195Z,6.93
2023-04-15T21:33:49.653Z,7.75
2023-04-15T21:36:16.919Z,9.23
2023-04-15T21:38:44.058Z,10.80
2023-04-15T21:41:11.296Z,14.20
2023-04-15T21:43:38.721Z,16.92
2023-04-15T21:46:23.537Z,15.02
2023-04-15T21:48:53.341Z,12.68
2023-04-15T21:51:20.912Z,11.63
2023-04-15T21:53:48.276Z,9.70
2023-04-15T21:56:15.582Z,9.93
2023-04-15T21:58:43.154Z,11.93
2023-04-15T22:01:10.359Z,13.50
2023-04-15T22:03:37.810Z,12.13
2023-04-15T22:06:05.378Z,10.63
2023-04-15T22:08:38.720Z,10.32
2023-04-15T22:11:28.478Z,8.10
2023-04-15T22:13:57.460Z,9.00
2023-04-15T22:16:26.065Z,8.95
2023-04-15T22:18:53.719Z,10.05
2023-04-15T22:21:20.862Z,9.98
2023-04-15T22:23:49.264Z,9.35
2023-04-15T22:26:16.676Z,9.25
2023-04-15T22:28:44.018Z,9.32
2023-04-15T22:31:11.550Z,8.50
2023-04-15T22:33:39.163Z,8.10
2023-04-15T22:36:06.536Z,7.63
2023-04-15T22:38:33.740Z,8.68
2023-04-15T22:41:01.298Z,8.75
2023-04-15T22:43:28.523Z,8.85
2023-04-15T22:45:56.696Z,8.20
2023-04-15T22:48:24.037Z,9.07
2023-04-15T22:50:51.334Z,6.40
2023-04-15T22:53:19.102Z,9.98
2023-04-15T22:55:49.670Z,10.35
2023-04-15T22:58:18.402Z,9.40
2023-04-15T23:00:45.800Z,9.85
2023-04-15T23:03:13.307Z,8.68
2023-04-15T23:05:41.357Z,9.35
2023-04-15T23:08:08.721Z,8.50
2023-04-15T23:10:35.880Z,8.25
2023-04-15T23:13:03.114Z,8.15
2023-04-15T23:15:30.344Z,7.97
2023-04-15T23:17:57.579Z,8.18
2023-04-15T23:20:24.819Z,7.53
2023-04-15T23:22:52.026Z,7.28
2023-04-15T23:25:22.267Z,7.63
2023-04-15T23:27:49.511Z,8.40
2023-04-15T23:30:16.778Z,7.72
2023-04-15T23:32:44.048Z,7.18
2023-04-15T23:35:11.364Z,8.02
2023-04-15T23:37:38.608Z,6.35
2023-04-15T23:40:06.458Z,7.38
2023-04-15T23:42:33.680Z,7.05
2023-04-15T23:45:00.982Z,8.55
2023-04-15T23:47:28.444Z,9.52
2023-04-15T23:49:55.652Z,7.97
2023-04-15T23:52:23.245Z,7.65
2023-04-15T23:54:50.582Z,8.00
2023-04-15T23:57:18.858Z,7.70
2023-04-15T23:59:46.738Z,6.80
